createdAt,value
2023-04-07T00:01:34.059Z,4.70
2023-04-07T00:04:02.547Z,4.68
2023-04-07T00:06:30.780Z,4.66
2023-04-07T00:08:58.539Z,4.66
2023-04-07T00:11:27.877Z,4.68
2023-04-07T00:13:55.981Z,4.69
2023-04-07T00:16:24.231Z,4.74
2023-04-07T00:18:52.372Z,4.74
2023-04-07T00:21:20.244Z,4.71
2023-04-07T00:23:48.443Z,4.71
2023-04-07T00:26:16.622Z,4.72
2023-04-07T00:28:45.871Z,4.72
2023-04-07T00:31:13.854Z,4.71
2023-04-07T00:33:42.085Z,4.71
2023-04-07T00:36:10.509Z,4.72
2023-04-07T00:38:38.261Z,4.70
2023-04-07T00:41:06.469Z,4.73
2023-04-07T00:43:34.532Z,4.73
2023-04-07T00:46:03.914Z,4.75
2023-04-07T00:48:32.033Z,4.75
2023-04-07T00:50:59.995Z,4.70
2023-04-07T00:53:27.759Z,4.69
2023-04-07T00:55:55.813Z,4.71
2023-04-07T00:58:23.705Z,4.68
2023-04-07T01:00:58.055Z,4.73
2023-04-07T01:03:32.851Z,4.72
2023-04-07T01:06:02.831Z,4.72
2023-04-07T01:08:34.776Z,4.68
2023-04-07T01:11:08.957Z,4.67
2023-04-07T01:13:38.819Z,4.70
2023-04-07T01:16:12.727Z,4.68
2023-04-07T01:18:42.431Z,4.61
2023-04-07T01:21:16.471Z,4.68
2023-04-07T01:23:53.937Z,4.68
2023-04-07T01:26:24.920Z,4.70
2023-04-07T01:29:33.272Z,4.70
2023-04-07T01:32:02.486Z,4.60
2023-04-07T01:34:31.814Z,4.70
2023-04-07T01:37:00.912Z,4.69
2023-04-07T01:39:29.121Z,4.69
2023-04-07T01:41:57.386Z,4.71
2023-04-07T01:44:26.090Z,4.74
2023-04-07T01:46:55.690Z,4.73
2023-04-07T01:49:24.846Z,4.75
2023-04-07T01:51:52.713Z,4.77
2023-04-07T01:54:20.597Z,4.74
2023-04-07T01:56:48.339Z,4.74
2023-04-07T01:59:16.120Z,4.77
2023-04-07T02:01:44.145Z,4.77
2023-04-07T02:04:17.902Z,4.79
2023-04-07T02:06:50.224Z,4.82
2023-04-07T02:09:18.261Z,4.80
2023-04-07T02:11:47.119Z,4.82
2023-04-07T02:14:15.612Z,4.77
2023-04-07T02:16:45.626Z,4.77
2023-04-07T02:19:16.027Z,4.84
2023-04-07T02:21:45.739Z,4.85
2023-04-07T02:24:13.732Z,4.88
2023-04-07T02:26:41.887Z,4.88
2023-04-07T02:29:09.717Z,4.96
2023-04-07T02:31:37.542Z,4.95
2023-04-07T02:34:05.310Z,4.97
2023-04-07T02:36:34.512Z,5.01
2023-04-07T02:39:02.343Z,4.98
2023-04-07T02:41:30.128Z,4.99
2023-04-07T02:43:58.196Z,5.00
2023-04-07T02:46:26.125Z,5.01
2023-04-07T02:48:53.971Z,4.96
2023-04-07T02:51:21.748Z,5.01
2023-04-07T02:53:50.956Z,5.01
2023-04-07T02:56:18.774Z,4.96
2023-04-07T02:58:46.734Z,4.98
2023-04-07T03:01:14.619Z,4.98
2023-04-07T03:03:44.980Z,5.04
2023-04-07T03:06:12.972Z,5.01
2023-04-07T03:08:40.860Z,4.96
2023-04-07T03:11:10.013Z,4.97
2023-04-07T03:13:37.789Z,5.01
2023-04-07T03:16:05.697Z,4.97
2023-04-07T03:18:33.535Z,4.97
2023-04-07T03:21:01.319Z,5.06
2023-04-07T03:23:29.791Z,5.03
2023-04-07T03:25:58.752Z,4.97
2023-04-07T03:28:27.933Z,4.94
2023-04-07T03:30:55.774Z,4.92
2023-04-07T03:33:23.555Z,4.94
2023-04-07T03:35:51.524Z,4.94
2023-04-07T03:38:19.398Z,4.95
2023-04-07T03:40:47.927Z,4.98
2023-04-07T03:43:16.303Z,4.99
2023-04-07T03:45:45.457Z,5.00
2023-04-07T03:48:13.503Z,5.03
2023-04-07T03:50:41.542Z,5.02
2023-04-07T03:53:09.464Z,5.01
2023-04-07T03:55:37.664Z,5.01
2023-04-07T03:58:05.452Z,4.98
2023-04-07T04:00:33.686Z,5.01
2023-04-07T04:03:03.009Z,4.95
2023-04-07T04:05:30.884Z,4.85
2023-04-07T04:07:58.676Z,5.02
2023-04-07T04:10:27.292Z,5.01
2023-04-07T04:12:55.127Z,5.04
2023-04-07T04:15:23.076Z,5.01
2023-04-07T04:17:51.008Z,5.00
2023-04-07T04:20:22.217Z,5.04
2023-04-07T04:22:50.085Z,4.94
2023-04-07T04:25:18.233Z,4.98
2023-04-07T04:27:46.190Z,5.09
2023-04-07T04:30:14.208Z,5.07
2023-04-07T04:32:42.195Z,5.08
2023-04-07T04:35:10.966Z,5.13
2023-04-07T04:37:40.135Z,5.14
2023-04-07T04:40:09.497Z,5.12
2023-04-07T04:42:37.370Z,5.05
2023-04-07T04:45:05.900Z,5.07
2023-04-07T04:47:33.773Z,5.05
2023-04-07T04:50:01.723Z,4.98
2023-04-07T04:52:30.055Z,5.03
2023-04-07T04:54:59.244Z,5.03
2023-04-07T04:57:27.090Z,5.06
2023-04-07T04:59:54.840Z,5.06
2023-04-07T05:02:22.970Z,5.02
2023-04-07T05:04:51.034Z,5.07
2023-04-07T05:07:18.859Z,5.06
2023-04-07T05:09:46.644Z,5.10
2023-04-07T05:12:16.225Z,5.11
2023-04-07T05:14:43.975Z,5.06
2023-04-07T05:17:11.785Z,5.13
2023-04-07T05:19:39.561Z,5.14
2023-04-07T05:22:07.335Z,5.17
2023-04-07T05:24:35.495Z,5.17
2023-04-07T05:27:03.281Z,5.19
2023-04-07T05:29:32.444Z,5.18
2023-04-07T05:32:01.569Z,5.14
2023-04-07T05:34:29.446Z,5.16
2023-04-07T05:36:57.252Z,5.13
2023-04-07T05:39:25.086Z,5.14
2023-04-07T05:41:53.148Z,5.20
2023-04-07T05:44:21.156Z,5.14
2023-04-07T05:46:50.275Z,5.14
2023-04-07T05:49:19.918Z,5.14
2023-04-07T05:51:49.170Z,5.19
2023-04-07T05:54:17.531Z,5.08
2023-04-07T05:56:45.523Z,5.19
2023-04-07T05:59:13.318Z,5.20
2023-04-07T06:01:41.273Z,5.21
2023-04-07T06:04:10.461Z,5.29
2023-04-07T06:06:38.668Z,5.34
2023-04-07T06:09:07.741Z,5.31
2023-04-07T06:11:36.097Z,5.28
2023-04-07T06:14:03.881Z,5.34
2023-04-07T06:16:32.024Z,5.38
2023-04-07T06:18:59.834Z,5.40
2023-04-07T06:21:29.022Z,5.45
2023-04-07T06:23:56.761Z,5.48
2023-04-07T06:26:24.674Z,5.48
2023-04-07T06:28:53.037Z,5.45
2023-04-07T06:31:21.173Z,5.41
2023-04-07T06:33:49.205Z,5.41
2023-04-07T06:36:17.459Z,5.43
2023-04-07T06:38:47.260Z,5.48
2023-04-07T06:41:17.174Z,5.52
2023-04-07T06:43:45.085Z,5.53
2023-04-07T06:46:12.960Z,5.61
2023-04-07T06:48:40.844Z,5.58
2023-04-07T06:51:08.698Z,5.51
2023-04-07T06:53:36.519Z,5.50
2023-04-07T06:56:06.983Z,5.52
2023-04-07T06:58:35.444Z,5.50
2023-04-07T07:01:03.889Z,5.47
2023-04-07T07:03:32.268Z,5.46
2023-04-07T07:06:00.751Z,5.49
2023-04-07T07:08:29.792Z,5.54
2023-04-07T07:10:57.667Z,5.33
2023-04-07T07:13:27.632Z,5.66
2023-04-07T07:15:55.525Z,5.68
2023-04-07T07:18:23.355Z,5.71
2023-04-07T07:20:51.672Z,5.76
2023-04-07T07:23:19.502Z,5.82
2023-04-07T07:25:47.267Z,5.87
2023-04-07T07:28:15.069Z,5.84
2023-04-07T07:30:44.250Z,5.87
2023-04-07T07:33:12.123Z,5.98
2023-04-07T07:35:40.572Z,5.94
2023-04-07T07:38:08.557Z,6.09
2023-04-07T07:40:36.332Z,6.14
2023-04-07T07:43:04.187Z,6.14
2023-04-07T07:45:31.980Z,6.17
2023-04-07T07:48:01.189Z,6.15
2023-04-07T07:50:29.133Z,6.14
2023-04-07T07:52:56.952Z,6.14
2023-04-07T07:55:24.894Z,6.22
2023-04-07T07:57:52.677Z,6.25
2023-04-07T08:00:20.927Z,6.25
2023-04-07T08:02:48.751Z,6.29
2023-04-07T08:05:17.896Z,6.32
2023-04-07T08:07:46.918Z,6.35
2023-04-07T08:10:14.968Z,6.41
2023-04-07T08:12:42.794Z,6.48
2023-04-07T08:15:11.249Z,6.49
2023-04-07T08:17:39.322Z,6.53
2023-04-07T08:20:10.498Z,6.61
2023-04-07T08:22:39.636Z,6.65
2023-04-07T08:25:07.621Z,6.72
2023-04-07T08:27:35.684Z,6.71
2023-04-07T08:30:06.436Z,6.74
2023-04-07T08:32:37.864Z,6.82
2023-04-07T08:35:06.384Z,6.85
2023-04-07T08:37:34.488Z,6.86
2023-04-07T08:40:04.877Z,6.86
2023-04-07T08:42:34.256Z,6.91
2023-04-07T08:45:04.765Z,6.93
2023-04-07T08:47:34.143Z,6.97
2023-04-07T08:50:03.818Z,6.99
2023-04-07T08:52:35.462Z,6.95
2023-04-07T08:55:06.950Z,6.99
2023-04-07T08:57:35.436Z,6.98
2023-04-07T09:00:05.839Z,7.00
2023-04-07T09:02:35.261Z,7.03
2023-04-07T09:05:05.452Z,7.09
2023-04-07T09:07:34.799Z,7.21
2023-04-07T09:10:04.482Z,7.26
2023-04-07T09:12:33.095Z,7.29
2023-04-07T09:15:01.470Z,7.33
2023-04-07T09:17:30.417Z,7.31
2023-04-07T09:19:59.073Z,7.47
2023-04-07T09:22:35.994Z,7.51
2023-04-07T09:25:18.375Z,7.45
2023-04-07T09:28:00.258Z,7.40
2023-04-07T09:30:29.261Z,7.42
2023-04-07T09:32:57.497Z,7.47
2023-04-07T09:35:26.544Z,7.46
2023-04-07T09:38:04.144Z,7.54
2023-04-07T09:40:34.116Z,7.50
2023-04-07T09:43:02.774Z,7.65
2023-04-07T09:45:35.144Z,7.69
2023-04-07T09:48:07.157Z,7.80
2023-04-07T09:50:36.527Z,8.01
2023-04-07T09:53:05.021Z,8.08
2023-04-07T09:55:35.025Z,8.12
2023-04-07T09:58:03.460Z,8.16
2023-04-07T10:00:31.250Z,8.32
2023-04-07T10:02:59.454Z,8.44
2023-04-07T10:05:27.414Z,8.42
2023-04-07T10:07:55.603Z,8.47
2023-04-07T10:10:23.506Z,8.54
2023-04-07T10:12:53.962Z,8.54
2023-04-07T10:15:21.877Z,8.46
2023-04-07T10:17:50.516Z,8.43
2023-04-07T10:20:20.853Z,8.33
2023-04-07T10:22:50.238Z,8.48
2023-04-07T10:25:20.074Z,8.52
2023-04-07T10:27:51.284Z,8.50
2023-04-07T10:30:24.221Z,8.55
2023-04-07T10:32:54.199Z,8.62
2023-04-07T10:35:23.124Z,8.64
2023-04-07T10:38:13.988Z,8.63
2023-04-07T10:40:43.087Z,8.73
2023-04-07T10:43:11.935Z,8.79
2023-04-07T10:45:59.673Z,8.81
2023-04-07T10:48:33.086Z,8.68
2023-04-07T10:51:17.762Z,8.93
2023-04-07T10:54:20.585Z,8.86
2023-04-07T10:57:17.084Z,8.84
2023-04-07T11:00:27.287Z,8.85
2023-04-07T11:02:56.552Z,8.83
2023-04-07T11:05:24.607Z,8.75
2023-04-07T11:07:55.232Z,8.65
2023-04-07T11:10:23.391Z,8.70
2023-04-07T11:13:07.952Z,8.77
2023-04-07T11:15:37.880Z,8.83
2023-04-07T11:18:14.630Z,8.82
2023-04-07T11:20:45.002Z,8.85
2023-04-07T11:23:14.323Z,8.98
2023-04-07T11:25:44.235Z,9.05
2023-04-07T11:28:13.345Z,9.03
2023-04-07T11:30:46.340Z,9.00
2023-04-07T11:33:20.255Z,9.12
2023-04-07T11:35:56.881Z,9.15
2023-04-07T11:38:26.155Z,9.14
2023-04-07T11:40:54.399Z,9.11
2023-04-07T11:43:24.135Z,9.02
2023-04-07T11:46:11.996Z,8.91
2023-04-07T11:48:42.450Z,8.84
2023-04-07T11:51:17.058Z,8.95
2023-04-07T11:53:45.157Z,8.97
2023-04-07T11:56:18.804Z,8.76
2023-04-07T11:58:49.913Z,8.89
2023-04-07T12:01:17.732Z,8.95
2023-04-07T12:04:01.875Z,9.00
2023-04-07T12:06:30.992Z,9.04
2023-04-07T12:08:58.965Z,8.85
2023-04-07T12:11:26.752Z,8.89
2023-04-07T12:13:54.940Z,8.94
2023-04-07T12:16:23.054Z,9.03
2023-04-07T12:18:51.471Z,9.04
2023-04-07T12:21:20.643Z,9.04
2023-04-07T12:23:49.026Z,9.05
2023-04-07T12:26:17.022Z,8.95
2023-04-07T12:28:45.344Z,8.91
2023-04-07T12:31:13.137Z,8.87
2023-04-07T12:33:40.899Z,8.89
2023-04-07T12:36:09.003Z,8.78
2023-04-07T12:38:38.254Z,8.70
2023-04-07T12:41:06.113Z,8.64
2023-04-07T12:43:33.993Z,8.62
2023-04-07T12:46:01.925Z,8.63
2023-04-07T12:48:29.735Z,8.67
2023-04-07T12:50:57.586Z,8.70
2023-04-07T12:53:25.707Z,8.80
2023-04-07T12:55:54.846Z,8.79
2023-04-07T12:58:22.683Z,8.77
2023-04-07T13:00:50.543Z,8.76
2023-04-07T13:03:18.597Z,8.79
2023-04-07T13:05:46.528Z,8.74
2023-04-07T13:08:14.314Z,8.72
2023-04-07T13:10:42.520Z,8.66
2023-04-07T13:13:11.741Z,8.64
2023-04-07T13:15:39.588Z,8.57
2023-04-07T13:18:08.231Z,8.51
2023-04-07T13:20:36.079Z,8.53
2023-04-07T13:23:08.390Z,8.53
2023-04-07T13:25:37.788Z,8.54
2023-04-07T13:28:05.915Z,8.51
2023-04-07T13:30:35.188Z,8.65
2023-04-07T13:33:03.191Z,8.76
2023-04-07T13:35:35.593Z,8.82
2023-04-07T13:38:04.317Z,8.90
2023-04-07T13:40:32.227Z,8.88
2023-04-07T13:43:01.069Z,8.97
2023-04-07T13:45:28.936Z,9.10
2023-04-07T13:47:58.174Z,9.25
2023-04-07T13:50:26.212Z,9.27
2023-04-07T13:52:54.036Z,9.17
2023-04-07T13:55:21.819Z,9.08
2023-04-07T13:57:49.636Z,9.05
2023-04-07T14:00:18.178Z,8.97
2023-04-07T14:02:48.476Z,8.96
2023-04-07T14:05:17.903Z,8.85
2023-04-07T14:07:45.736Z,8.75
2023-04-07T14:10:13.482Z,8.64
2023-04-07T14:12:41.326Z,8.61
2023-04-07T14:15:10.209Z,8.55
2023-04-07T14:17:38.232Z,8.57
2023-04-07T14:20:07.182Z,8.53
2023-04-07T14:22:36.357Z,8.53
2023-04-07T14:25:04.744Z,8.52
2023-04-07T14:27:33.454Z,8.50
2023-04-07T14:30:01.643Z,8.49
2023-04-07T14:32:30.377Z,8.49
2023-04-07T14:34:59.315Z,8.50
2023-04-07T14:37:28.535Z,8.56
2023-04-07T14:42:29.740Z,8.41
2023-04-07T14:44:57.930Z,8.40
2023-04-07T14:47:26.503Z,8.37
2023-04-07T14:49:54.398Z,8.36
2023-04-07T14:52:22.822Z,8.47
2023-04-07T14:54:50.581Z,8.49
2023-04-07T14:57:19.740Z,8.57
2023-04-07T14:59:48.400Z,8.63
2023-04-07T15:02:16.331Z,8.63
2023-04-07T15:04:44.325Z,8.59
2023-04-07T15:07:12.406Z,8.56
2023-04-07T15:09:40.176Z,8.58
2023-04-07T15:12:07.907Z,8.57
2023-04-07T15:14:37.074Z,8.52
2023-04-07T15:17:04.803Z,8.61
2023-04-07T15:19:32.666Z,8.61
2023-04-07T15:22:00.470Z,8.56
2023-04-07T15:24:29.368Z,8.62
2023-04-07T15:26:57.121Z,8.65
2023-04-07T15:29:24.919Z,8.67
2023-04-07T15:31:54.218Z,8.73
2023-04-07T15:34:22.032Z,8.67
2023-04-07T15:36:49.823Z,8.67
2023-04-07T15:39:17.632Z,8.63
2023-04-07T15:41:45.476Z,8.65
2023-04-07T15:44:18.492Z,8.70
2023-04-07T15:46:46.286Z,8.66
2023-04-07T15:49:20.030Z,8.55
2023-04-07T15:51:47.872Z,8.49
2023-04-07T15:54:15.918Z,8.40
2023-04-07T15:56:43.706Z,8.35
2023-04-07T15:59:11.459Z,8.38
2023-04-07T16:01:39.486Z,8.37
2023-04-07T16:04:07.547Z,8.26
2023-04-07T16:06:36.741Z,8.21
2023-04-07T16:09:05.401Z,8.22
2023-04-07T16:11:33.296Z,8.22
2023-04-07T16:14:01.095Z,8.21
2023-04-07T16:16:28.850Z,8.22
2023-04-07T16:18:56.757Z,8.12
2023-04-07T16:21:24.521Z,8.10
2023-04-07T16:23:53.917Z,8.16
2023-04-07T16:26:21.826Z,8.16
2023-04-07T16:28:51.745Z,8.16
2023-04-07T16:31:19.746Z,8.17
2023-04-07T16:33:47.865Z,8.25
2023-04-07T16:36:16.085Z,8.24
2023-04-07T16:38:43.877Z,8.27
2023-04-07T16:41:13.066Z,8.13
2023-04-07T16:43:40.863Z,8.08
2023-04-07T16:46:08.834Z,8.00
2023-04-07T16:48:36.634Z,7.95
2023-04-07T16:51:04.432Z,7.92
2023-04-07T16:53:32.271Z,7.92
2023-04-07T16:56:00.045Z,7.90
2023-04-07T16:58:29.176Z,7.93
2023-04-07T17:00:57.011Z,7.90
2023-04-07T17:03:25.028Z,8.01
2023-04-07T17:05:53.017Z,8.06
2023-04-07T17:08:21.139Z,8.03
2023-04-07T17:10:48.982Z,7.98
2023-04-07T17:13:16.913Z,7.87
2023-04-07T17:15:46.769Z,7.83
2023-04-07T17:18:14.690Z,7.85
2023-04-07T17:20:42.517Z,7.84
2023-04-07T17:23:10.395Z,7.86
2023-04-07T17:25:38.237Z,7.81
2023-04-07T17:28:06.008Z,7.74
2023-04-07T17:30:34.137Z,7.71
2023-04-07T17:33:03.641Z,7.70
2023-04-07T17:35:31.776Z,7.64
2023-04-07T17:38:02.595Z,7.59
2023-04-07T17:40:30.400Z,7.53
2023-04-07T17:42:58.846Z,7.50
2023-04-07T17:45:26.775Z,7.39
2023-04-07T17:47:54.918Z,7.38
2023-04-07T17:50:24.206Z,7.38
2023-04-07T17:52:52.093Z,7.42
2023-04-07T17:55:20.301Z,7.45
2023-04-07T17:57:48.048Z,7.44
2023-04-07T18:00:16.221Z,7.39
2023-04-07T18:02:44.201Z,7.41
2023-04-07T18:05:12.833Z,7.37
2023-04-07T18:07:41.949Z,7.42
2023-04-07T18:10:11.011Z,7.42
2023-04-07T18:12:39.564Z,7.40
2023-04-07T18:15:08.625Z,7.37
2023-04-07T18:17:36.462Z,7.35
2023-04-07T18:20:04.611Z,7.33
2023-04-07T18:22:32.910Z,7.32
2023-04-07T18:25:02.076Z,7.28
2023-04-07T18:27:29.865Z,7.21
2023-04-07T18:29:57.670Z,7.20
2023-04-07T18:32:25.497Z,7.17
2023-04-07T18:34:54.941Z,7.17
2023-04-07T18:37:23.266Z,7.16
2023-04-07T18:39:52.105Z,7.17
2023-04-07T18:42:21.271Z,7.15
2023-04-07T18:44:49.093Z,7.17
2023-04-07T18:47:17.323Z,7.13
2023-04-07T18:49:45.067Z,7.14
2023-04-07T18:52:12.885Z,7.15
2023-04-07T18:54:40.800Z,7.12
2023-04-07T18:57:08.555Z,7.08
2023-04-07T18:59:37.685Z,7.00
2023-04-07T19:02:05.624Z,6.99
2023-04-07T19:04:33.441Z,7.04
2023-04-07T19:07:01.223Z,7.04
2023-04-07T19:09:29.620Z,7.07
2023-04-07T19:11:58.046Z,7.05
2023-04-07T19:14:26.030Z,7.03
2023-04-07T19:16:55.602Z,7.01
2023-04-07T19:19:23.406Z,7.00
2023-04-07T19:21:51.533Z,7.02
2023-04-07T19:24:19.291Z,6.98
2023-04-07T19:26:47.211Z,6.99
2023-04-07T19:29:14.985Z,6.91
2023-04-07T19:31:42.809Z,6.86
2023-04-07T19:34:12.037Z,6.93
2023-04-07T19:36:39.832Z,6.88
2023-04-07T19:39:07.600Z,6.84
2023-04-07T19:41:35.420Z,6.78
2023-04-07T19:44:03.165Z,6.71
2023-04-07T19:46:33.274Z,6.71
2023-04-07T19:49:01.256Z,6.73
2023-04-07T19:51:30.428Z,6.77
2023-04-07T19:53:58.201Z,6.75
2023-04-07T19:56:26.122Z,6.74
2023-04-07T19:58:53.952Z,6.56
2023-04-07T20:01:21.951Z,6.79
2023-04-07T20:03:49.886Z,6.78
2023-04-07T20:06:19.032Z,6.71
2023-04-07T20:08:48.657Z,6.67
2023-04-07T20:11:16.626Z,6.64
2023-04-07T20:13:44.472Z,6.59
2023-04-07T20:16:12.257Z,6.63
2023-04-07T20:18:40.018Z,6.62
2023-04-07T20:21:07.934Z,6.61
2023-04-07T20:23:35.794Z,6.61
2023-04-07T20:26:04.976Z,6.61
2023-04-07T20:28:32.756Z,6.64
2023-04-07T20:31:00.929Z,6.64
2023-04-07T20:33:28.774Z,6.66
2023-04-07T20:35:56.603Z,6.67
2023-04-07T20:38:25.042Z,6.63
2023-04-07T20:40:53.291Z,6.64
2023-04-07T20:43:23.706Z,6.66
2023-04-07T20:45:52.277Z,6.66
2023-04-07T20:48:23.847Z,6.69
2023-04-07T20:50:52.150Z,6.82
2023-04-07T20:53:20.056Z,6.82
2023-04-07T20:55:48.655Z,6.76
2023-04-07T20:58:17.791Z,6.78
2023-04-07T21:00:47.042Z,6.73
2023-04-07T21:03:15.214Z,6.72
2023-04-07T21:05:43.515Z,6.70
2023-04-07T21:08:13.230Z,6.69
2023-04-07T21:10:42.328Z,6.67
2023-04-07T21:13:10.091Z,6.67
2023-04-07T21:15:37.987Z,6.64
2023-04-07T21:18:07.250Z,6.61
2023-04-07T21:20:36.981Z,6.59
2023-04-07T21:23:05.382Z,6.55
2023-04-07T21:25:33.505Z,6.51
2023-04-07T21:28:01.297Z,6.50
2023-04-07T21:30:29.492Z,6.40
2023-04-07T21:32:57.470Z,6.39
2023-04-07T21:35:29.522Z,6.32
2023-04-07T21:37:57.676Z,6.24
2023-04-07T21:40:25.620Z,6.22
2023-04-07T21:42:53.689Z,5.99
2023-04-07T21:45:21.890Z,6.18
2023-04-07T21:47:49.959Z,6.15
2023-04-07T21:50:18.916Z,6.10
2023-04-07T21:52:50.741Z,6.06
2023-04-07T21:55:19.105Z,6.05
2023-04-07T21:57:47.036Z,6.04
2023-04-07T22:00:16.561Z,5.99
2023-04-07T22:02:45.484Z,6.00
2023-04-07T22:05:13.898Z,6.00
2023-04-07T22:07:41.770Z,6.01
2023-04-07T22:10:11.680Z,6.01
2023-04-07T22:12:39.526Z,6.02
2023-04-07T22:15:08.632Z,6.02
2023-04-07T22:17:36.662Z,6.04
2023-04-07T22:20:05.140Z,6.02
2023-04-07T22:22:33.406Z,6.03
2023-04-07T22:25:01.273Z,6.03
2023-04-07T22:27:30.651Z,5.91
2023-04-07T22:29:58.666Z,6.06
2023-04-07T22:32:26.822Z,6.06
2023-04-07T22:34:54.652Z,6.06
2023-04-07T22:37:22.717Z,6.07
2023-04-07T22:39:50.693Z,6.04
2023-04-07T22:42:18.519Z,6.05
2023-04-07T22:44:47.783Z,6.07
2023-04-07T22:47:16.066Z,6.05
2023-04-07T22:49:43.860Z,6.04
2023-04-07T22:52:11.967Z,6.05
2023-04-07T22:54:39.956Z,6.04
2023-04-07T22:57:07.764Z,6.04
2023-04-07T22:59:35.962Z,5.97
2023-04-07T23:02:05.498Z,6.06
2023-04-07T23:04:33.743Z,6.07
2023-04-07T23:07:01.850Z,6.08
2023-04-07T23:09:29.737Z,6.08
2023-04-07T23:11:57.933Z,6.07
2023-04-07T23:14:25.924Z,6.09
2023-04-07T23:16:54.562Z,6.09
2023-04-07T23:19:24.140Z,6.05
2023-04-07T23:21:52.306Z,6.08
2023-04-07T23:24:20.588Z,6.03
2023-04-07T23:26:48.361Z,6.05
2023-04-07T23:29:16.488Z,6.04
2023-04-07T23:31:44.401Z,6.05
2023-04-07T23:34:12.257Z,6.04
2023-04-07T23:36:42.069Z,6.05
2023-04-07T23:39:10.119Z,6.06
2023-04-07T23:41:38.286Z,6.03
2023-04-07T23:44:07.031Z,6.02
2023-04-07T23:46:35.664Z,6.04
2023-04-07T23:49:03.518Z,6.06
2023-04-07T23:51:31.739Z,6.05
2023-04-07T23:54:01.220Z,6.06
2023-04-07T23:56:29.781Z,6.07
2023-04-07T23:58:57.660Z,6.06
